Time;durP1;ratioP1;P1;durP2;ratioP2;P2;SDS_P1;SDS_P2;PMS_P1;PMS_P2;Temp;Humidity;BMP_temperature;BMP_pressure;BME280_temperature;BME280_humidity;BME280_pressure;Samples;Min_cycle;Max_cycle;Signal;HPM_P1;HPM_P2
2021/05/19 00:00:39;;;;;;;14.70;13.18;;;;;;;;;;2065438;28;20224;-59
2021/05/19 00:01:41;;;;;;;15.48;13.90;;;;;;;;;;2065274;28;20177;-57
2021/05/19 00:02:41;;;;;;;14.55;13.05;;;;;;;;;;2065879;28;20275;-58
2021/05/19 00:03:41;;;;;;;15.05;13.55;;;;;;;;;;2065590;28;20205;-60
2021/05/19 00:04:41;;;;;;;15.10;13.30;;;;;;;;;;2066588;28;20648;-60
2021/05/19 00:05:42;;;;;;;15.18;13.75;;;;;;;;;;2067099;28;20177;-59
2021/05/19 00:06:43;;;;;;;16.20;14.55;;;;;;;;;;2065452;28;20559;-60
2021/05/19 00:07:43;;;;;;;14.98;13.38;;;;;;;;;;2056139;28;20649;-59
2021/05/19 00:08:44;;;;;;;15.32;13.73;;;;;;;;;;2063489;28;20178;-60
2021/05/19 00:09:44;;;;;;;14.98;13.23;;;;;;;;;;2066951;28;20169;-58
2021/05/19 00:10:44;;;;;;;15.55;13.90;;;;;;;;;;2066097;28;20186;-59
2021/05/19 00:11:45;;;;;;;14.10;12.75;;;;;;;;;;2064658;28;20186;-59
2021/05/19 00:12:45;;;;;;;15.55;13.95;;;;;;;;;;2065634;28;20211;-59
2021/05/19 00:13:50;;;;;;;14.80;13.40;;;;;;;;;;2064429;28;20225;-59
2021/05/19 00:14:50;;;;;;;15.80;14.10;;;;;;;;;;2065347;28;20169;-61
2021/05/19 00:15:51;;;;;;;14.40;13.00;;;;;;;;;;2065026;28;20244;-58
2021/05/19 00:16:51;;;;;;;16.08;14.48;;;;;;;;;;2064590;28;20185;-56
2021/05/19 00:17:51;;;;;;;16.20;14.23;;;;;;;;;;2064392;28;20189;-59
2021/05/19 00:18:51;;;;;;;15.65;14.00;;;;;;;;;;2064511;28;20189;-59
2021/05/19 00:19:52;;;;;;;14.98;13.45;;;;;;;;;;2064464;28;20169;-58
2021/05/19 00:20:53;;;;;;;15.98;14.35;;;;;;;;;;2055988;28;20182;-58
2021/05/19 00:21:53;;;;;;;15.40;13.75;;;;;;;;;;2057158;28;20329;-58
2021/05/19 00:22:53;;;;;;;16.48;14.68;;;;;;;;;;2064973;28;20181;-59
2021/05/19 00:23:54;;;;;;;16.35;14.65;;;;;;;;;;2064391;28;20193;-58
2021/05/19 00:24:54;;;;;;;15.25;13.63;;;;;;;;;;2064277;28;20269;-58
2021/05/19 00:25:54;;;;;;;14.60;13.20;;;;;;;;;;2064666;28;20202;-57
2021/05/19 00:26:54;;;;;;;15.60;14.05;;;;;;;;;;2066451;28;20671;-57
2021/05/19 00:27:55;;;;;;;15.73;14.02;;;;;;;;;;2063794;28;20181;-59
2021/05/19 00:28:56;;;;;;;15.68;14.10;;;;;;;;;;2063889;28;20224;-58
2021/05/19 00:29:56;;;;;;;14.60;13.20;;;;;;;;;;2063810;28;20209;-58
2021/05/19 00:30:58;;;;;;;14.82;13.30;;;;;;;;;;2056027;28;20667;-58
2021/05/19 00:31:59;;;;;;;15.93;14.32;;;;;;;;;;2056029;28;20244;-60
2021/05/19 00:32:59;;;;;;;15.77;14.13;;;;;;;;;;2055911;28;20273;-58
2021/05/19 00:34:00;;;;;;;15.05;13.48;;;;;;;;;;2055056;28;20274;-56
2021/05/19 00:35:00;;;;;;;14.25;12.85;;;;;;;;;;2064475;28;20193;-57
2021/05/19 00:36:00;;;;;;;14.52;13.13;;;;;;;;;;2064569;28;20253;-58
2021/05/19 00:37:01;;;;;;;15.93;13.63;;;;;;;;;;2064975;28;20187;-57
2021/05/19 00:38:01;;;;;;;15.68;14.13;;;;;;;;;;2055724;28;20294;-58
2021/05/19 00:39:02;;;;;;;15.52;13.55;;;;;;;;;;2047734;28;20229;-59
2021/05/19 00:40:03;;;;;;;15.95;14.35;;;;;;;;;;2053489;28;20266;-58
2021/05/19 00:41:06;;;;;;;15.38;13.77;;;;;;;;;;2064869;28;20197;-59
2021/05/19 00:42:06;;;;;;;15.50;14.00;;;;;;;;;;2065025;28;20220;-56
2021/05/19 00:43:06;;;;;;;15.50;13.90;;;;;;;;;;2064542;28;20173;-56
2021/05/19 00:44:08;;;;;;;16.20;14.20;;;;;;;;;;2064952;28;20201;-58
2021/05/19 00:45:10;;;;;;;17.80;14.75;;;;;;;;;;2065132;28;20178;-59
2021/05/19 00:46:10;;;;;;;15.63;14.02;;;;;;;;;;2065174;28;20178;-57
2021/05/19 00:47:11;;;;;;;16.77;14.50;;;;;;;;;;2055764;28;20171;-58
2021/05/19 00:48:13;;;;;;;15.80;14.23;;;;;;;;;;2054128;28;20265;-58
2021/05/19 00:49:13;;;;;;;17.80;15.20;;;;;;;;;;2063298;28;20213;-57
2021/05/19 00:50:18;;;;;;;16.58;14.52;;;;;;;;;;2065772;28;20966;-59
2021/05/19 00:51:18;;;;;;;14.73;13.32;;;;;;;;;;2064596;28;20177;-55
2021/05/19 00:52:18;;;;;;;15.15;13.50;;;;;;;;;;2065113;28;20169;-55
2021/05/19 00:53:19;;;;;;;15.40;13.90;;;;;;;;;;2056523;28;20189;-57
2021/05/19 00:54:19;;;;;;;17.33;14.45;;;;;;;;;;2055686;28;20279;-57
2021/05/19 01:26:07;;;;;;;17.10;14.23;;;;;;;;;;2061921;28;20162;-56
2021/05/19 01:27:08;;;;;;;15.88;14.18;;;;;;;;;;2056017;28;20567;-54
2021/05/19 01:28:09;;;;;;;16.38;13.98;;;;;;;;;;2055442;28;20224;-54
2021/05/19 01:29:09;;;;;;;17.15;14.35;;;;;;;;;;2064721;28;20161;-57
2021/05/19 01:30:10;;;;;;;16.73;14.20;;;;;;;;;;2064839;28;20182;-57
2021/05/19 01:31:12;;;;;;;14.98;13.48;;;;;;;;;;2048091;28;20218;-58
2021/05/19 01:32:12;;;;;;;15.98;13.85;;;;;;;;;;2047820;28;20197;-58
2021/05/19 01:33:12;;;;;;;16.60;14.85;;;;;;;;;;2064012;28;20189;-60
2021/05/19 01:34:13;;;;;;;16.17;14.57;;;;;;;;;;2055703;28;20182;-57
2021/05/19 01:35:14;;;;;;;15.68;14.07;;;;;;;;;;2055194;28;20241;-57
2021/05/19 01:36:16;;;;;;;15.60;13.85;;;;;;;;;;2052669;28;20265;-59
2021/05/19 01:37:17;;;;;;;15.85;14.18;;;;;;;;;;2055104;28;20166;-56
2021/05/19 01:38:17;;;;;;;13.82;12.55;;;;;;;;;;2054406;28;20564;-54
2021/05/19 01:39:18;;;;;;;14.45;12.95;;;;;;;;;;2055724;28;20210;-59
2021/05/19 01:40:20;;;;;;;14.07;12.57;;;;;;;;;;2053317;28;20166;-59
2021/05/19 01:41:21;;;;;;;15.30;12.82;;;;;;;;;;2055288;28;20183;-57
2021/05/19 01:42:21;;;;;;;14.77;13.38;;;;;;;;;;2059862;28;20264;-58
2021/05/19 01:43:33;;;;;;;15.20;13.60;;;;;;;;;;2048662;28;20230;-56
2021/05/19 01:45:00;;;;;;;15.05;12.98;;;;;;;;;;2056912;28;20202;-56
2021/05/19 01:46:10;;;;;;;14.50;13.00;;;;;;;;;;2064274;28;20606;-58
2021/05/19 01:47:10;;;;;;;14.38;12.98;;;;;;;;;;2063863;28;20166;-59
2021/05/19 01:48:13;;;;;;;17.92;13.73;;;;;;;;;;2056037;28;20252;-59
2021/05/19 01:49:14;;;;;;;14.07;12.60;;;;;;;;;;2056636;28;20185;-58
2021/05/19 01:50:16;;;;;;;13.80;12.48;;;;;;;;;;2064655;28;20198;-58
2021/05/19 01:51:19;;;;;;;14.05;12.63;;;;;;;;;;2062132;28;20177;-57
2021/05/19 01:52:19;;;;;;;15.00;13.40;;;;;;;;;;2065171;28;20264;-60
2021/05/19 01:53:20;;;;;;;14.87;13.27;;;;;;;;;;2055901;28;20182;-59
2021/05/19 01:54:21;;;;;;;15.25;13.60;;;;;;;;;;2055935;28;20239;-59
2021/05/19 01:55:22;;;;;;;17.17;13.13;;;;;;;;;;2064492;28;20648;-57
2021/05/19 01:56:22;;;;;;;14.98;13.05;;;;;;;;;;2063932;28;20201;-58
2021/05/19 01:57:26;;;;;;;16.13;14.35;;;;;;;;;;2055092;28;20175;-55
2021/05/19 01:58:27;;;;;;;18.02;16.13;;;;;;;;;;2047507;29;20175;-58
2021/05/19 01:59:28;;;;;;;23.77;18.13;;;;;;;;;;2057392;28;20190;-58
2021/05/19 02:00:31;;;;;;;17.42;15.52;;;;;;;;;;2064444;28;20854;-56
2021/05/19 02:01:32;;;;;;;23.13;17.55;;;;;;;;;;2064371;28;20170;-58
2021/05/19 02:02:33;;;;;;;25.13;18.67;;;;;;;;;;2064651;28;20202;-59
2021/05/19 02:03:33;;;;;;;21.83;18.00;;;;;;;;;;2063903;28;20186;-58
2021/05/19 02:04:42;;;;;;;19.40;17.05;;;;;;;;;;2056023;28;20217;-57
2021/05/19 02:05:44;;;;;;;20.75;17.38;;;;;;;;;;2055894;28;20175;-59
2021/05/19 02:06:49;;;;;;;19.60;16.98;;;;;;;;;;2055787;28;20175;-57
2021/05/19 02:07:53;;;;;;;20.77;17.40;;;;;;;;;;2056617;28;20182;-59
2021/05/19 02:08:56;;;;;;;21.40;17.45;;;;;;;;;;2055869;28;20636;-58
2021/05/19 02:09:57;;;;;;;21.10;18.90;;;;;;;;;;2057768;28;20752;-57
2021/05/19 02:10:57;;;;;;;20.60;17.00;;;;;;;;;;2050363;28;20215;-59
2021/05/19 02:12:00;;;;;;;20.80;17.70;;;;;;;;;;2056468;28;20174;-58
2021/05/19 02:14:02;;;;;;;19.98;17.85;;;;;;;;;;2078386;23;20288;-56
2021/05/19 02:15:04;;;;;;;24.55;19.75;;;;;;;;;;2068528;28;20177;-57
2021/05/19 02:16:04;;;;;;;21.23;18.30;;;;;;;;;;2070400;28;20251;-54
2021/05/19 02:17:05;;;;;;;23.13;18.52;;;;;;;;;;2069631;28;20265;-57
2021/05/19 02:18:05;;;;;;;22.05;17.30;;;;;;;;;;2060013;28;20691;-57
2021/05/19 02:19:10;;;;;;;20.10;17.20;;;;;;;;;;2064151;28;20173;-57
2021/05/19 02:20:16;;;;;;;19.00;16.60;;;;;;;;;;2072251;28;20181;-57
2021/05/19 02:21:17;;;;;;;19.67;17.67;;;;;;;;;;2061759;28;20169;-56
2021/05/19 02:22:33;;;;;;;21.40;16.87;;;;;;;;;;2063625;28;20301;-57
2021/05/19 02:23:33;;;;;;;18.85;16.38;;;;;;;;;;2070500;28;20200;-57
2021/05/19 02:24:34;;;;;;;21.67;17.27;;;;;;;;;;2072993;28;20176;-54
2021/05/19 02:25:35;;;;;;;18.60;16.50;;;;;;;;;;2058954;28;20206;-55
2021/05/19 02:26:37;;;;;;;17.17;15.32;;;;;;;;;;2062210;28;20182;-55
2021/05/19 02:27:38;;;;;;;22.67;16.73;;;;;;;;;;2069034;28;20736;-57
2021/05/19 02:28:42;;;;;;;20.40;16.75;;;;;;;;;;2062540;28;20179;-57
2021/05/19 02:29:51;;;;;;;16.48;14.77;;;;;;;;;;2055629;28;20872;-55
2021/05/19 02:30:52;;;;;;;19.77;15.80;;;;;;;;;;2064310;28;20186;-54
2021/05/19 02:31:56;;;;;;;19.92;15.35;;;;;;;;;;2064988;28;20228;-54
2021/05/19 02:32:57;;;;;;;18.38;15.13;;;;;;;;;;2062499;28;20531;-54
2021/05/19 02:33:58;;;;;;;17.85;14.82;;;;;;;;;;2070226;28;20204;-55
2021/05/19 02:34:59;;;;;;;19.80;15.20;;;;;;;;;;2062211;28;20185;-56
2021/05/19 02:35:59;;;;;;;19.48;16.08;;;;;;;;;;2061945;28;20184;-54
2021/05/19 02:37:00;;;;;;;19.13;16.08;;;;;;;;;;2061570;28;20178;-55
2021/05/19 02:38:00;;;;;;;17.60;15.70;;;;;;;;;;2059825;28;20202;-52
2021/05/19 02:39:02;;;;;;;19.38;15.32;;;;;;;;;;2062542;28;20181;-54
2021/05/19 02:40:06;;;;;;;19.65;15.32;;;;;;;;;;2062792;28;20174;-55
2021/05/19 02:41:07;;;;;;;17.17;15.13;;;;;;;;;;2063955;28;20182;-56
2021/05/19 02:42:07;;;;;;;17.73;15.93;;;;;;;;;;2062999;28;20174;-54
2021/05/19 02:43:07;;;;;;;18.53;15.67;;;;;;;;;;2057192;28;20181;-54
2021/05/19 02:44:12;;;;;;;19.48;15.98;;;;;;;;;;2057978;28;20329;-56
2021/05/19 02:45:13;;;;;;;16.38;14.75;;;;;;;;;;2063505;28;20170;-56
2021/05/19 02:46:13;;;;;;;17.02;15.25;;;;;;;;;;2074465;28;20177;-53
2021/05/19 02:47:13;;;;;;;18.02;16.00;;;;;;;;;;2066694;28;20177;-55
2021/05/19 02:48:14;;;;;;;18.55;15.93;;;;;;;;;;2068126;28;20268;-54
2021/05/19 02:49:14;;;;;;;17.87;15.97;;;;;;;;;;2071548;28;20441;-55
2021/05/19 02:50:16;;;;;;;20.17;16.23;;;;;;;;;;2071681;28;20180;-56
2021/05/19 02:51:19;;;;;;;20.83;16.47;;;;;;;;;;2069034;28;20177;-55
2021/05/19 02:52:20;;;;;;;19.60;16.73;;;;;;;;;;2072149;28;20188;-58
2021/05/19 02:53:20;;;;;;;20.48;16.33;;;;;;;;;;2073829;28;20185;-55
2021/05/19 02:54:20;;;;;;;20.73;16.08;;;;;;;;;;2069903;28;20281;-54
2021/05/19 02:55:21;;;;;;;20.03;17.10;;;;;;;;;;2071524;28;20224;-53
2021/05/19 02:56:21;;;;;;;20.97;17.13;;;;;;;;;;2070217;28;20196;-58
2021/05/19 02:57:21;;;;;;;21.65;16.55;;;;;;;;;;2070825;28;20211;-54
2021/05/19 02:58:22;;;;;;;20.23;17.33;;;;;;;;;;2070188;28;20268;-52
2021/05/19 02:59:22;;;;;;;21.20;17.70;;;;;;;;;;2069707;28;20181;-56
2021/05/19 03:00:23;;;;;;;19.35;16.63;;;;;;;;;;2074773;28;20281;-52
2021/05/19 03:01:23;;;;;;;19.70;16.27;;;;;;;;;;2074096;28;20263;-54
2021/05/19 03:02:23;;;;;;;22.20;16.43;;;;;;;;;;2071796;28;20176;-59
2021/05/19 03:03:23;;;;;;;20.20;16.70;;;;;;;;;;2073891;28;20208;-55
2021/05/19 03:04:24;;;;;;;19.00;16.53;;;;;;;;;;2069020;28;20196;-58
2021/05/19 03:05:24;;;;;;;17.67;15.60;;;;;;;;;;2070571;28;20180;-56
2021/05/19 03:06:24;;;;;;;21.37;16.27;;;;;;;;;;2071743;28;20169;-58
2021/05/19 03:07:25;;;;;;;17.45;15.60;;;;;;;;;;2070111;28;20279;-53
2021/05/19 03:08:25;;;;;;;19.43;16.00;;;;;;;;;;2069338;28;20179;-53
2021/05/19 03:09:26;;;;;;;23.27;18.10;;;;;;;;;;2072703;28;20171;-56
2021/05/19 03:10:27;;;;;;;21.50;17.27;;;;;;;;;;2071484;28;20664;-57
2021/05/19 03:11:27;;;;;;;21.50;17.40;;;;;;;;;;2070412;28;20177;-57
2021/05/19 03:12:27;;;;;;;20.73;16.00;;;;;;;;;;2070795;28;20174;-54
2021/05/19 03:13:28;;;;;;;17.40;15.57;;;;;;;;;;2062800;28;20248;-56
2021/05/19 03:14:28;;;;;;;20.43;16.87;;;;;;;;;;2063659;28;20182;-55
2021/05/19 03:15:28;;;;;;;18.07;16.17;;;;;;;;;;2072901;28;20184;-57
2021/05/19 03:16:30;;;;;;;23.50;16.37;;;;;;;;;;2063048;28;20234;-57
2021/05/19 03:17:31;;;;;;;18.47;15.93;;;;;;;;;;2061697;28;20688;-57
2021/05/19 03:18:31;;;;;;;22.73;16.20;;;;;;;;;;2074099;28;20215;-54
2021/05/19 03:19:31;;;;;;;20.40;15.50;;;;;;;;;;2062785;28;20176;-54
2021/05/19 03:20:32;;;;;;;18.10;16.07;;;;;;;;;;2062244;28;20209;-52
2021/05/19 03:21:32;;;;;;;19.27;15.50;;;;;;;;;;2071230;28;20198;-54
2021/05/19 03:22:32;;;;;;;19.40;16.37;;;;;;;;;;2067676;28;20229;-53
2021/05/19 03:23:32;;;;;;;20.67;15.77;;;;;;;;;;2066345;28;20205;-55
2021/05/19 03:24:33;;;;;;;19.77;16.50;;;;;;;;;;2071596;28;20165;-55
2021/05/19 03:25:33;;;;;;;19.60;16.63;;;;;;;;;;2065475;28;20201;-57
2021/05/19 03:26:33;;;;;;;19.13;15.87;;;;;;;;;;2064517;28;20196;-54
2021/05/19 03:27:34;;;;;;;23.13;18.25;;;;;;;;;;2068124;28;20815;-58
2021/05/19 03:28:34;;;;;;;24.77;18.23;;;;;;;;;;2069810;28;20666;-55
2021/05/19 03:29:34;;;;;;;20.20;16.58;;;;;;;;;;2069162;28;20216;-55
2021/05/19 03:30:35;;;;;;;22.17;17.00;;;;;;;;;;2063783;28;20714;-58
2021/05/19 03:31:35;;;;;;;24.33;19.03;;;;;;;;;;2060936;28;20183;-52
2021/05/19 03:32:36;;;;;;;22.37;17.30;;;;;;;;;;2069388;28;20269;-54
2021/05/19 03:33:36;;;;;;;22.30;17.63;;;;;;;;;;2070758;28;20255;-53
2021/05/19 03:34:36;;;;;;;22.53;17.37;;;;;;;;;;2070684;28;20623;-57
2021/05/19 03:35:36;;;;;;;22.70;17.27;;;;;;;;;;2072981;28;20582;-54
2021/05/19 03:36:37;;;;;;;22.07;17.17;;;;;;;;;;2070288;28;20569;-57
2021/05/19 03:37:37;;;;;;;22.47;17.40;;;;;;;;;;2058569;28;20202;-56
2021/05/19 03:38:38;;;;;;;20.00;15.83;;;;;;;;;;2056121;28;20178;-53
2021/05/19 03:39:38;;;;;;;17.10;15.17;;;;;;;;;;2071071;28;20177;-57
2021/05/19 03:40:38;;;;;;;18.30;15.20;;;;;;;;;;2072728;28;20161;-56
2021/05/19 03:41:39;;;;;;;18.07;14.97;;;;;;;;;;2070869;28;20616;-56
2021/05/19 03:42:39;;;;;;;18.60;15.60;;;;;;;;;;2071508;28;20732;-57
2021/05/19 03:43:40;;;;;;;20.15;16.23;;;;;;;;;;2063317;28;20202;-54
2021/05/19 03:44:40;;;;;;;17.87;15.20;;;;;;;;;;2063900;28;20186;-55
2021/05/19 03:45:41;;;;;;;19.10;15.43;;;;;;;;;;2068540;28;20174;-54
2021/05/19 03:46:41;;;;;;;19.07;15.37;;;;;;;;;;2072683;28;20223;-55
2021/05/19 03:47:42;;;;;;;21.53;16.50;;;;;;;;;;2071935;28;20186;-56
2021/05/19 03:48:42;;;;;;;20.70;16.67;;;;;;;;;;2074218;28;20180;-53
2021/05/19 03:49:43;;;;;;;21.20;16.53;;;;;;;;;;2065452;28;20240;-54
2021/05/19 03:50:44;;;;;;;20.13;15.03;;;;;;;;;;2063159;28;20182;-56
2021/05/19 03:51:45;;;;;;;18.97;15.63;;;;;;;;;;2072450;28;20177;-55
2021/05/19 03:52:45;;;;;;;19.43;15.97;;;;;;;;;;2071573;28;20232;-58
2021/05/19 03:53:45;;;;;;;19.48;15.60;;;;;;;;;;2071027;28;20204;-56
2021/05/19 03:54:45;;;;;;;17.10;15.30;;;;;;;;;;2072204;28;20557;-53
2021/05/19 03:55:46;;;;;;;19.70;16.33;;;;;;;;;;2073777;28;20177;-55
2021/05/19 03:56:48;;;;;;;19.87;16.17;;;;;;;;;;2062438;28;20676;-55
2021/05/19 03:57:49;;;;;;;19.93;15.87;;;;;;;;;;2062716;28;20177;-54
2021/05/19 03:58:49;;;;;;;20.23;16.50;;;;;;;;;;2062377;28;20201;-56
2021/05/19 03:59:49;;;;;;;20.73;16.67;;;;;;;;;;2065366;28;20181;-54
2021/05/19 04:00:50;;;;;;;21.33;17.17;;;;;;;;;;2072454;28;20200;-57
2021/05/19 04:01:50;;;;;;;18.55;15.48;;;;;;;;;;2072077;28;20181;-55
2021/05/19 04:02:50;;;;;;;22.10;17.87;;;;;;;;;;2069824;28;20244;-56
2021/05/19 04:03:51;;;;;;;23.48;18.15;;;;;;;;;;2069282;28;20387;-56
2021/05/19 04:04:51;;;;;;;25.67;19.30;;;;;;;;;;2069891;28;20185;-55
2021/05/19 04:05:51;;;;;;;26.37;20.50;;;;;;;;;;2070348;28;20177;-55
2021/05/19 04:06:52;;;;;;;25.10;19.63;;;;;;;;;;2071643;28;20193;-59
2021/05/19 04:07:53;;;;;;;28.58;19.92;;;;;;;;;;2072294;28;20270;-53
2021/05/19 04:08:56;;;;;;;23.58;20.08;;;;;;;;;;2062096;28;20249;-57
2021/05/19 04:09:56;;;;;;;29.27;20.70;;;;;;;;;;2062281;28;20178;-57
2021/05/19 04:10:57;;;;;;;29.48;20.55;;;;;;;;;;2065930;28;20216;-55
2021/05/19 04:11:57;;;;;;;27.30;21.05;;;;;;;;;;2059880;28;20201;-57
2021/05/19 04:12:57;;;;;;;27.67;19.58;;;;;;;;;;2062510;28;20264;-54
2021/05/19 04:13:58;;;;;;;29.20;21.43;;;;;;;;;;2068796;28;20209;-54
2021/05/19 04:14:58;;;;;;;24.10;20.33;;;;;;;;;;2070745;28;20180;-54
2021/05/19 04:15:58;;;;;;;24.60;19.25;;;;;;;;;;2063136;28;20184;-57
2021/05/19 04:16:59;;;;;;;24.33;18.92;;;;;;;;;;2064969;28;20650;-56
2021/05/19 04:17:59;;;;;;;25.25;19.65;;;;;;;;;;2070103;28;20247;-56
2021/05/19 04:18:59;;;;;;;26.67;19.37;;;;;;;;;;2073397;28;20200;-56
2021/05/19 04:20:00;;;;;;;25.27;18.98;;;;;;;;;;2070295;28;20743;-53
2021/05/19 04:21:00;;;;;;;22.48;17.63;;;;;;;;;;2069319;28;20248;-53
2021/05/19 04:22:00;;;;;;;21.50;18.80;;;;;;;;;;2064388;28;20224;-53
2021/05/19 04:23:01;;;;;;;23.25;18.63;;;;;;;;;;2060505;28;20212;-62
2021/05/19 04:24:01;;;;;;;23.25;17.17;;;;;;;;;;2063881;28;20202;-57
2021/05/19 04:25:01;;;;;;;20.35;16.98;;;;;;;;;;2063946;28;20228;-53
2021/05/19 04:26:02;;;;;;;19.40;15.98;;;;;;;;;;2070121;28;20220;-54
2021/05/19 04:27:02;;;;;;;20.83;18.00;;;;;;;;;;2072596;28;20175;-54
2021/05/19 04:28:03;;;;;;;23.27;18.70;;;;;;;;;;2072158;28;20184;-54
2021/05/19 04:29:03;;;;;;;21.42;18.02;;;;;;;;;;2072296;28;20176;-56
2021/05/19 04:30:04;;;;;;;21.25;18.40;;;;;;;;;;2070205;28;20180;-57
2021/05/19 04:31:05;;;;;;;25.02;18.70;;;;;;;;;;2072333;28;20497;-55
2021/05/19 04:32:05;;;;;;;25.70;19.67;;;;;;;;;;2069985;28;20639;-54
2021/05/19 04:33:05;;;;;;;27.10;19.23;;;;;;;;;;2070355;28;20181;-53
2021/05/19 04:34:06;;;;;;;27.60;20.60;;;;;;;;;;2070648;28;20178;-55
2021/05/19 04:35:07;;;;;;;24.93;19.50;;;;;;;;;;2071327;28;20686;-55
2021/05/19 04:36:07;;;;;;;23.27;18.58;;;;;;;;;;2068927;28;20189;-53
2021/05/19 04:37:08;;;;;;;25.05;19.15;;;;;;;;;;2064529;28;20912;-59
2021/05/19 04:38:08;;;;;;;23.17;19.98;;;;;;;;;;2063637;28;20181;-54
2021/05/19 04:39:08;;;;;;;29.00;21.17;;;;;;;;;;2069400;28;20656;-56
2021/05/19 04:40:09;;;;;;;30.52;21.05;;;;;;;;;;2069727;28;20175;-55
2021/05/19 04:41:09;;;;;;;28.08;20.42;;;;;;;;;;2070491;28;20170;-57
2021/05/19 04:42:10;;;;;;;27.65;22.23;;;;;;;;;;2063953;28;20264;-56
2021/05/19 04:43:10;;;;;;;28.27;21.25;;;;;;;;;;2064125;28;20254;-55
2021/05/19 04:44:10;;;;;;;27.73;21.25;;;;;;;;;;2070054;28;20193;-57
2021/05/19 04:45:11;;;;;;;25.92;20.38;;;;;;;;;;2060898;28;20208;-57
2021/05/19 04:46:11;;;;;;;29.75;22.48;;;;;;;;;;2061590;28;20245;-57
2021/05/19 04:47:11;;;;;;;27.05;20.40;;;;;;;;;;2069886;28;20227;-56
2021/05/19 04:48:12;;;;;;;26.27;20.35;;;;;;;;;;2069651;28;20220;-57
2021/05/19 04:49:12;;;;;;;28.27;21.77;;;;;;;;;;2069756;28;20170;-59
2021/05/19 04:50:13;;;;;;;25.83;19.92;;;;;;;;;;2069905;28;20803;-56
2021/05/19 04:51:13;;;;;;;26.67;20.30;;;;;;;;;;2071423;28;20185;-55
2021/05/19 04:52:13;;;;;;;28.25;20.42;;;;;;;;;;2069586;28;20219;-56
2021/05/19 04:53:13;;;;;;;26.17;20.20;;;;;;;;;;2072487;28;20184;-55
2021/05/19 04:54:14;;;;;;;24.33;18.90;;;;;;;;;;2070001;28;20191;-54
2021/05/19 04:55:14;;;;;;;24.73;19.25;;;;;;;;;;2071843;28;20651;-56
2021/05/19 04:56:14;;;;;;;22.35;19.10;;;;;;;;;;2071383;28;20169;-56
2021/05/19 04:57:15;;;;;;;22.52;18.10;;;;;;;;;;2071774;28;20172;-56
2021/05/19 04:58:15;;;;;;;22.02;18.50;;;;;;;;;;2069373;28;20180;-53
2021/05/19 04:59:15;;;;;;;22.70;18.92;;;;;;;;;;2071024;28;20205;-56
2021/05/19 05:00:16;;;;;;;21.63;18.13;;;;;;;;;;2069531;28;20169;-54
2021/05/19 05:01:16;;;;;;;21.20;17.17;;;;;;;;;;2061048;28;20194;-56
2021/05/19 05:02:17;;;;;;;22.52;18.05;;;;;;;;;;2052738;28;20174;-54
2021/05/19 05:03:18;;;;;;;22.10;18.77;;;;;;;;;;2061250;28;20217;-57
2021/05/19 05:04:18;;;;;;;21.17;17.27;;;;;;;;;;2068639;28;20228;-55
2021/05/19 05:05:18;;;;;;;21.58;17.85;;;;;;;;;;2060130;28;20201;-57
2021/05/19 05:06:19;;;;;;;22.85;18.02;;;;;;;;;;2060908;28;20261;-56
2021/05/19 05:07:19;;;;;;;21.27;18.05;;;;;;;;;;2069077;28;20169;-52
2021/05/19 05:08:19;;;;;;;22.25;18.52;;;;;;;;;;2059874;28;20624;-55
2021/05/19 05:09:20;;;;;;;22.90;18.92;;;;;;;;;;2061074;28;20257;-54
2021/05/19 05:10:20;;;;;;;28.55;20.65;;;;;;;;;;2060823;28;20894;-53
2021/05/19 05:11:21;;;;;;;26.00;20.35;;;;;;;;;;2063601;28;20203;-55
2021/05/19 05:12:21;;;;;;;24.95;21.83;;;;;;;;;;2069920;28;20173;-55
2021/05/19 05:13:23;;;;;;;25.27;19.73;;;;;;;;;;2071540;28;20179;-56
2021/05/19 05:14:23;;;;;;;25.17;20.60;;;;;;;;;;2071613;28;20177;-54
2021/05/19 05:15:23;;;;;;;26.27;20.35;;;;;;;;;;2069671;28;20527;-51
2021/05/19 05:16:24;;;;;;;24.05;21.27;;;;;;;;;;2072721;28;20230;-54
2021/05/19 05:17:24;;;;;;;26.02;21.13;;;;;;;;;;2061347;28;20346;-56
2021/05/19 05:18:24;;;;;;;26.80;21.45;;;;;;;;;;2062076;28;20186;-57
2021/05/19 05:19:24;;;;;;;26.52;22.35;;;;;;;;;;2069276;28;20203;-55
2021/05/19 05:20:25;;;;;;;28.38;24.27;;;;;;;;;;2071148;28;20199;-53
2021/05/19 05:21:25;;;;;;;28.52;23.42;;;;;;;;;;2066147;28;20172;-56
2021/05/19 05:22:25;;;;;;;32.28;24.95;;;;;;;;;;2062043;28;20261;-57
2021/05/19 05:23:25;;;;;;;32.33;24.65;;;;;;;;;;2070691;28;20718;-58
2021/05/19 05:24:26;;;;;;;34.35;25.25;;;;;;;;;;2061489;28;20205;-56
2021/05/19 05:25:26;;;;;;;38.20;28.60;;;;;;;;;;2063054;28;20197;-56
2021/05/19 05:26:26;;;;;;;39.60;29.20;;;;;;;;;;2070311;28;20196;-55
2021/05/19 05:27:27;;;;;;;37.38;29.60;;;;;;;;;;2068989;28;20169;-58
2021/05/19 05:28:27;;;;;;;38.58;30.65;;;;;;;;;;2072331;28;20174;-57
2021/05/19 05:29:28;;;;;;;45.95;32.38;;;;;;;;;;2069740;28;20212;-59
2021/05/19 05:30:28;;;;;;;46.08;33.60;;;;;;;;;;2070382;28;20257;-57
2021/05/19 05:31:28;;;;;;;45.05;33.20;;;;;;;;;;2072342;28;20261;-58
2021/05/19 05:32:28;;;;;;;46.65;33.65;;;;;;;;;;2070254;28;20557;-57
2021/05/19 05:33:29;;;;;;;47.40;34.05;;;;;;;;;;2073941;28;20216;-59
2021/05/19 05:34:29;;;;;;;50.88;32.58;;;;;;;;;;2073712;28;20179;-59
2021/05/19 05:35:29;;;;;;;40.95;32.90;;;;;;;;;;2071078;28;20172;-60
2021/05/19 05:36:29;;;;;;;42.47;32.40;;;;;;;;;;2070091;28;20192;-57
2021/05/19 05:37:30;;;;;;;39.50;31.30;;;;;;;;;;2070787;28;20207;-57
2021/05/19 05:38:30;;;;;;;40.85;31.27;;;;;;;;;;2068336;28;20540;-53
2021/05/19 05:39:30;;;;;;;37.22;27.83;;;;;;;;;;2070927;28;20243;-56
2021/05/19 05:40:30;;;;;;;34.88;28.40;;;;;;;;;;2070937;28;20176;-57
2021/05/19 05:41:31;;;;;;;36.08;27.42;;;;;;;;;;2070847;28;20161;-57
2021/05/19 05:42:32;;;;;;;31.52;26.23;;;;;;;;;;2061141;28;20216;-60
2021/05/19 05:43:32;;;;;;;30.55;24.02;;;;;;;;;;2059556;28;20197;-56
2021/05/19 05:44:33;;;;;;;31.50;23.65;;;;;;;;;;2071530;28;20165;-59
2021/05/19 05:45:33;;;;;;;29.75;24.15;;;;;;;;;;2071687;28;20173;-56
2021/05/19 05:46:33;;;;;;;28.38;24.33;;;;;;;;;;2073405;28;20180;-56
2021/05/19 05:47:34;;;;;;;27.77;23.13;;;;;;;;;;2070240;28;20231;-56
2021/05/19 05:48:34;;;;;;;24.00;21.45;;;;;;;;;;2064222;28;20224;-53
2021/05/19 05:49:35;;;;;;;23.65;20.92;;;;;;;;;;2063906;28;20177;-55
2021/05/19 05:50:35;;;;;;;23.02;20.25;;;;;;;;;;2072661;28;20215;-53
2021/05/19 05:51:35;;;;;;;22.00;19.38;;;;;;;;;;2072603;28;20230;-55
2021/05/19 05:52:35;;;;;;;22.77;19.90;;;;;;;;;;2067081;28;20183;-54
2021/05/19 05:53:36;;;;;;;22.45;20.05;;;;;;;;;;2071007;28;20231;-54
2021/05/19 05:54:36;;;;;;;23.35;19.58;;;;;;;;;;2066728;28;20610;-53
2021/05/19 05:55:37;;;;;;;21.40;18.55;;;;;;;;;;2070183;28;20173;-58
2021/05/19 05:56:37;;;;;;;20.25;17.27;;;;;;;;;;2072343;28;20279;-53
2021/05/19 05:57:38;;;;;;;21.20;18.40;;;;;;;;;;2067144;28;20177;-56
2021/05/19 05:58:38;;;;;;;21.08;18.83;;;;;;;;;;2069801;28;20193;-54
2021/05/19 05:59:38;;;;;;;21.67;18.60;;;;;;;;;;2068710;28;20204;-57
2021/05/19 06:00:39;;;;;;;24.45;20.90;;;;;;;;;;2071714;28;20228;-60
2021/05/19 06:01:39;;;;;;;20.30;18.30;;;;;;;;;;2069548;28;20188;-61
2021/05/19 06:02:39;;;;;;;18.92;17.00;;;;;;;;;;2061954;28;20169;-58
2021/05/19 06:03:40;;;;;;;19.85;16.98;;;;;;;;;;2065501;28;20754;-58
2021/05/19 06:04:40;;;;;;;19.85;17.73;;;;;;;;;;2069587;28;20268;-62
2021/05/19 06:05:40;;;;;;;19.73;16.65;;;;;;;;;;2071087;28;20666;-60
2021/05/19 06:06:41;;;;;;;19.05;16.77;;;;;;;;;;2072914;28;20181;-60
2021/05/19 06:07:41;;;;;;;18.23;16.35;;;;;;;;;;2063003;28;20176;-58
2021/05/19 06:08:41;;;;;;;17.27;15.45;;;;;;;;;;2065647;28;20731;-61
2021/05/19 06:09:49;;;;;;;21.13;16.02;;;;;;;;;;2073291;28;20208;-61
2021/05/19 06:10:49;;;;;;;17.65;15.85;;;;;;;;;;2069070;28;20204;-60
2021/05/19 06:11:50;;;;;;;18.23;14.95;;;;;;;;;;2071618;28;20643;-62
2021/05/19 06:12:50;;;;;;;16.33;14.73;;;;;;;;;;2071469;28;20185;-60
2021/05/19 06:13:50;;;;;;;17.40;14.88;;;;;;;;;;2070238;28;20223;-58
2021/05/19 06:14:50;;;;;;;15.65;14.13;;;;;;;;;;2061740;28;20192;-61
2021/05/19 06:15:51;;;;;;;17.42;14.80;;;;;;;;;;2065600;28;20264;-60
2021/05/19 06:16:51;;;;;;;16.58;14.30;;;;;;;;;;2070573;28;20226;-61
2021/05/19 06:17:52;;;;;;;17.27;14.93;;;;;;;;;;2068928;28;20185;-61
2021/05/19 06:18:52;;;;;;;15.98;14.30;;;;;;;;;;2063453;28;20178;-63
2021/05/19 06:19:52;;;;;;;17.73;15.93;;;;;;;;;;2063646;28;20190;-61
2021/05/19 06:20:53;;;;;;;15.30;13.77;;;;;;;;;;2055132;28;20181;-59
2021/05/19 06:21:53;;;;;;;15.10;13.43;;;;;;;;;;2054311;28;20190;-62
2021/05/19 06:22:53;;;;;;;18.13;14.82;;;;;;;;;;2071817;28;20217;-61
2021/05/19 06:23:54;;;;;;;19.05;15.82;;;;;;;;;;2071147;28;20209;-58
2021/05/19 06:24:54;;;;;;;16.65;15.00;;;;;;;;;;2071901;28;20197;-59
2021/05/19 06:25:54;;;;;;;15.75;14.15;;;;;;;;;;2072703;28;20178;-60